TAF Text Data
IDs:
Format:
Raw Decoded Include METAR

Data at: 1253 UTC 23 Jun 2021

KMPV 231120Z 2312/2412 30006KT P6SM FEW250
  FM231500 31010KT P6SM FEW050
  FM232200 VRB04KT P6SM FEW250